Time;durP1;ratioP1;P1;durP2;ratioP2;P2;SDS_P1;SDS_P2;PMS_P1;PMS_P2;Temp;Humidity;BMP_temperature;BMP_pressure;BME280_temperature;BME280_humidity;BME280_pressure;Samples;Min_cycle;Max_cycle;Signal;HPM_P1;HPM_P2
2023/08/14 00:00:07;;;;;;;5.57;2.70;;;;;;;;;;5061645;28;20448;-79
2023/08/14 00:02:34;;;;;;;3.40;2.70;;;;;;;;;;5061301;28;20465;-79
2023/08/14 00:05:01;;;;;;;3.00;2.50;;;;;;;;;;5060740;28;20456;-79
2023/08/14 00:07:28;;;;;;;4.43;2.70;;;;;;;;;;5060363;28;20467;-79
2023/08/14 00:09:56;;;;;;;2.87;2.10;;;;;;;;;;5061504;28;20441;-79
2023/08/14 00:12:23;;;;;;;2.43;2.10;;;;;;;;;;5060583;28;20583;-79
2023/08/14 00:14:50;;;;;;;3.60;2.33;;;;;;;;;;5059824;28;20496;-80
2023/08/14 00:17:19;;;;;;;2.97;2.30;;;;;;;;;;5059144;28;20459;-79
2023/08/14 00:19:46;;;;;;;2.77;1.90;;;;;;;;;;5060032;28;20440;-80
2023/08/14 00:22:13;;;;;;;2.30;2.10;;;;;;;;;;5060489;28;20484;-79
2023/08/14 00:24:41;;;;;;;5.23;2.57;;;;;;;;;;5060745;28;20972;-79
2023/08/14 00:27:09;;;;;;;4.00;2.30;;;;;;;;;;5060079;28;20960;-79
2023/08/14 00:29:36;;;;;;;2.60;2.37;;;;;;;;;;5060320;28;20460;-79
2023/08/14 00:32:03;;;;;;;2.40;2.20;;;;;;;;;;5060699;28;20493;-79
2023/08/14 00:34:31;;;;;;;2.77;1.93;;;;;;;;;;5061217;28;20890;-79
2023/08/14 00:36:58;;;;;;;4.37;2.50;;;;;;;;;;5060875;28;20453;-80
2023/08/14 00:39:26;;;;;;;2.63;2.37;;;;;;;;;;5060645;28;20894;-80
2023/08/14 00:41:53;;;;;;;2.00;1.80;;;;;;;;;;5060458;28;20479;-79
2023/08/14 00:44:20;;;;;;;3.90;2.20;;;;;;;;;;5060340;28;20459;-79
2023/08/14 00:46:47;;;;;;;3.80;3.50;;;;;;;;;;5060457;28;20938;-79
2023/08/14 00:49:14;;;;;;;2.80;2.47;;;;;;;;;;5060283;28;20456;-80
2023/08/14 00:51:43;;;;;;;11.57;3.50;;;;;;;;;;5059870;28;20481;-80
2023/08/14 00:54:11;;;;;;;4.37;2.20;;;;;;;;;;5059629;28;20471;-80
2023/08/14 00:56:38;;;;;;;2.93;1.90;;;;;;;;;;5059560;28;20489;-79
2023/08/14 00:59:05;;;;;;;4.77;2.20;;;;;;;;;;5059646;28;20456;-80
2023/08/14 01:01:32;;;;;;;3.43;2.40;;;;;;;;;;5059069;28;20484;-79
2023/08/14 01:04:00;;;;;;;4.23;2.13;;;;;;;;;;5059724;28;20985;-80
2023/08/14 01:06:27;;;;;;;2.83;2.63;;;;;;;;;;5060139;28;20695;-80
2023/08/14 01:08:56;;;;;;;2.23;2.03;;;;;;;;;;5060365;28;20975;-79
2023/08/14 01:11:25;;;;;;;2.17;1.90;;;;;;;;;;5060619;28;20457;-80
2023/08/14 01:13:55;;;;;;;2.87;2.47;;;;;;;;;;5060771;28;20473;-80
2023/08/14 01:16:24;;;;;;;3.23;2.00;;;;;;;;;;5060713;28;20447;-80
2023/08/14 01:18:53;;;;;;;3.30;2.37;;;;;;;;;;5062214;28;20457;-80
2023/08/14 01:21:26;;;;;;;3.10;2.37;;;;;;;;;;5062369;28;20460;-79
2023/08/14 01:24:03;;;;;;;2.60;2.00;;;;;;;;;;5064172;28;20437;-80
2023/08/14 01:26:32;;;;;;;2.50;2.30;;;;;;;;;;5063466;28;20447;-80
2023/08/14 01:28:59;;;;;;;2.63;2.20;;;;;;;;;;5062948;28;20459;-79
2023/08/14 01:31:27;;;;;;;3.33;2.90;;;;;;;;;;5061522;28;20481;-79
2023/08/14 01:33:55;;;;;;;3.40;2.80;;;;;;;;;;5061345;28;20480;-79
2023/08/14 01:36:25;;;;;;;3.33;2.90;;;;;;;;;;5061819;28;20449;-79
2023/08/14 01:38:57;;;;;;;2.80;2.60;;;;;;;;;;5064250;28;20426;-79
2023/08/14 01:41:27;;;;;;;3.67;2.30;;;;;;;;;;5062958;28;20504;-80
2023/08/14 01:43:57;;;;;;;3.47;2.47;;;;;;;;;;5061944;28;20433;-79
2023/08/14 01:46:24;;;;;;;2.30;2.10;;;;;;;;;;5061844;28;20457;-79
2023/08/14 01:48:52;;;;;;;2.20;2.00;;;;;;;;;;5062521;28;20453;-79
2023/08/14 01:51:19;;;;;;;3.20;2.20;;;;;;;;;;5062584;28;20523;-80
2023/08/14 01:53:48;;;;;;;4.23;3.17;;;;;;;;;;5061838;28;20506;-80
2023/08/14 01:56:15;;;;;;;4.33;3.17;;;;;;;;;;5062628;28;20485;-80
2023/08/14 01:58:42;;;;;;;4.00;3.03;;;;;;;;;;5062858;28;20467;-80
2023/08/14 02:01:11;;;;;;;3.63;2.40;;;;;;;;;;5061735;28;20454;-79
2023/08/14 02:03:39;;;;;;;3.83;2.97;;;;;;;;;;5063494;28;20480;-79
2023/08/14 02:06:06;;;;;;;3.00;2.63;;;;;;;;;;5064288;28;20810;-79
2023/08/14 02:08:33;;;;;;;3.10;2.77;;;;;;;;;;5064057;28;20457;-79
2023/08/14 02:11:07;;;;;;;4.00;2.30;;;;;;;;;;5063079;28;20460;-80
2023/08/14 02:13:34;;;;;;;3.13;2.63;;;;;;;;;;5061678;28;20484;-79
2023/08/14 02:16:01;;;;;;;3.60;2.50;;;;;;;;;;5061640;28;20449;-79
2023/08/14 02:18:29;;;;;;;8.50;2.77;;;;;;;;;;5061136;28;20470;-80
2023/08/14 02:20:56;;;;;;;3.53;3.23;;;;;;;;;;5061858;28;20449;-79
2023/08/14 02:23:24;;;;;;;6.67;3.50;;;;;;;;;;5061072;28;20473;-79
2023/08/14 02:25:51;;;;;;;6.60;3.20;;;;;;;;;;5062703;28;20482;-80
2023/08/14 02:28:18;;;;;;;4.20;2.40;;;;;;;;;;5062532;28;20970;-79
2023/08/14 02:30:45;;;;;;;5.63;2.37;;;;;;;;;;5063127;28;20468;-79
2023/08/14 02:33:12;;;;;;;3.93;2.37;;;;;;;;;;5067229;28;20492;-80
2023/08/14 02:35:41;;;;;;;3.70;3.13;;;;;;;;;;5065956;28;20461;-80
2023/08/14 02:38:08;;;;;;;3.13;2.47;;;;;;;;;;5065875;28;20457;-80
2023/08/14 02:40:36;;;;;;;2.57;2.37;;;;;;;;;;5066932;28;20451;-80
2023/08/14 02:43:04;;;;;;;3.10;2.73;;;;;;;;;;5066738;28;20520;-80
2023/08/14 02:45:32;;;;;;;3.77;2.40;;;;;;;;;;5066680;28;20437;-79
2023/08/14 02:47:59;;;;;;;4.10;2.40;;;;;;;;;;5066071;28;20546;-79
2023/08/14 02:50:26;;;;;;;2.90;2.53;;;;;;;;;;5066790;28;20876;-79
2023/08/14 02:52:55;;;;;;;2.70;2.50;;;;;;;;;;5066248;28;20500;-79
2023/08/14 02:55:22;;;;;;;3.50;2.67;;;;;;;;;;5066632;28;20443;-79
2023/08/14 02:57:49;;;;;;;4.07;2.63;;;;;;;;;;5066882;28;20447;-79
2023/08/14 03:00:17;;;;;;;2.63;2.43;;;;;;;;;;5066296;28;20449;-79
2023/08/14 03:02:45;;;;;;;2.93;2.73;;;;;;;;;;5067185;28;20515;-79
2023/08/14 03:05:12;;;;;;;3.83;2.60;;;;;;;;;;5066159;28;20459;-79
2023/08/14 03:07:40;;;;;;;2.77;2.57;;;;;;;;;;5066499;28;20463;-79
2023/08/14 03:10:09;;;;;;;3.40;2.80;;;;;;;;;;5067573;28;20423;-79
2023/08/14 03:12:36;;;;;;;2.90;2.70;;;;;;;;;;5067062;28;20504;-79
2023/08/14 03:15:03;;;;;;;4.57;2.47;;;;;;;;;;5067962;28;20960;-79
2023/08/14 03:17:30;;;;;;;5.33;3.17;;;;;;;;;;5067979;28;20452;-80
2023/08/14 03:19:57;;;;;;;3.87;2.90;;;;;;;;;;5066831;28;20864;-79
2023/08/14 03:22:25;;;;;;;3.00;2.77;;;;;;;;;;5067985;28;20935;-80
2023/08/14 03:24:52;;;;;;;4.00;2.73;;;;;;;;;;5067938;28;20516;-79
2023/08/14 03:27:20;;;;;;;3.53;3.23;;;;;;;;;;5068876;28;20459;-79
2023/08/14 03:29:47;;;;;;;3.77;2.77;;;;;;;;;;5068586;28;20433;-79
2023/08/14 03:32:14;;;;;;;5.00;2.90;;;;;;;;;;5067566;28;20859;-79
2023/08/14 03:34:42;;;;;;;5.10;2.70;;;;;;;;;;5066609;28;20485;-80
2023/08/14 03:37:09;;;;;;;4.97;3.27;;;;;;;;;;5066463;28;20547;-79
2023/08/14 03:39:36;;;;;;;5.33;3.70;;;;;;;;;;5066396;28;20480;-79
2023/08/14 03:42:03;;;;;;;3.53;3.23;;;;;;;;;;5066644;28;20981;-79
2023/08/14 03:44:31;;;;;;;3.33;3.00;;;;;;;;;;5066780;28;20464;-79
2023/08/14 03:46:59;;;;;;;5.10;3.47;;;;;;;;;;5067417;28;20460;-79
2023/08/14 03:49:26;;;;;;;3.50;3.20;;;;;;;;;;5066495;28;20449;-79
2023/08/14 03:51:53;;;;;;;3.37;3.07;;;;;;;;;;5066657;28;20837;-79
2023/08/14 03:54:20;;;;;;;4.10;3.43;;;;;;;;;;5066487;28;20480;-79
2023/08/14 03:56:47;;;;;;;5.93;3.37;;;;;;;;;;5066905;28;20448;-79
2023/08/14 03:59:14;;;;;;;3.53;3.23;;;;;;;;;;5067141;28;20531;-80
2023/08/14 04:01:43;;;;;;;4.30;3.27;;;;;;;;;;5065711;28;20492;-79
2023/08/14 04:04:10;;;;;;;3.93;3.20;;;;;;;;;;5066618;28;20484;-79
2023/08/14 04:06:38;;;;;;;3.33;2.93;;;;;;;;;;5067309;28;20813;-79
2023/08/14 04:09:05;;;;;;;3.60;2.93;;;;;;;;;;5065045;28;20485;-79
2023/08/14 04:11:33;;;;;;;3.43;2.90;;;;;;;;;;5065284;28;20471;-80
2023/08/14 04:14:00;;;;;;;6.40;3.03;;;;;;;;;;5066070;28;20484;-79
2023/08/14 04:16:41;;;;;;;4.93;3.37;;;;;;;;;;5065506;28;20460;-79
2023/08/14 04:19:10;;;;;;;3.93;3.60;;;;;;;;;;5064349;28;20479;-79
2023/08/14 04:21:37;;;;;;;5.40;3.43;;;;;;;;;;5062663;28;20480;-79
2023/08/14 04:24:04;;;;;;;4.50;4.10;;;;;;;;;;5063724;28;20455;-79
2023/08/14 04:26:31;;;;;;;5.23;4.40;;;;;;;;;;5065042;28;20441;-79
2023/08/14 04:28:58;;;;;;;4.20;3.80;;;;;;;;;;5064848;28;20976;-79
2023/08/14 04:31:25;;;;;;;7.50;4.80;;;;;;;;;;5065361;28;20536;-80
2023/08/14 04:33:53;;;;;;;6.27;3.90;;;;;;;;;;5059687;28;20484;-79
2023/08/14 04:36:21;;;;;;;5.70;4.23;;;;;;;;;;5059726;28;20441;-80
2023/08/14 04:38:48;;;;;;;5.90;3.83;;;;;;;;;;5059802;28;20453;-79
2023/08/14 04:41:15;;;;;;;9.40;3.70;;;;;;;;;;5059907;28;20453;-80
2023/08/14 04:43:43;;;;;;;6.30;4.00;;;;;;;;;;5059022;28;20467;-79
2023/08/14 04:46:10;;;;;;;5.27;4.77;;;;;;;;;;5058770;28;20449;-80
2023/08/14 04:48:38;;;;;;;5.80;5.00;;;;;;;;;;5059704;28;20445;-80
2023/08/14 04:51:05;;;;;;;4.27;3.17;;;;;;;;;;5059404;28;20920;-80
2023/08/14 04:53:33;;;;;;;4.10;3.70;;;;;;;;;;5058170;28;20937;-80
2023/08/14 04:56:00;;;;;;;6.20;3.70;;;;;;;;;;5057599;28;21038;-80
2023/08/14 04:58:27;;;;;;;5.63;3.97;;;;;;;;;;5057790;28;20465;-80
2023/08/14 05:00:55;;;;;;;3.10;2.57;;;;;;;;;;5058167;28;20453;-80
2023/08/14 05:03:22;;;;;;;3.07;2.77;;;;;;;;;;5058144;28;20461;-80
2023/08/14 05:05:52;;;;;;;3.50;2.60;;;;;;;;;;5058451;28;20455;-78
2023/08/14 05:08:20;;;;;;;3.10;2.80;;;;;;;;;;5058023;28;20464;-80
2023/08/14 05:10:52;;;;;;;2.80;2.60;;;;;;;;;;5057804;28;20464;-79
2023/08/14 05:13:19;;;;;;;4.30;2.90;;;;;;;;;;5058136;28;20483;-80
2023/08/14 05:15:47;;;;;;;5.77;2.50;;;;;;;;;;5057988;28;20438;-79
2023/08/14 05:18:14;;;;;;;2.90;2.60;;;;;;;;;;5057248;28;20457;-79
2023/08/14 05:20:44;;;;;;;2.77;2.57;;;;;;;;;;5057756;28;20539;-80
2023/08/14 05:23:11;;;;;;;3.20;2.90;;;;;;;;;;5057404;28;21031;-79
2023/08/14 05:25:38;;;;;;;3.63;2.47;;;;;;;;;;5056709;28;20444;-82
2023/08/14 05:28:07;;;;;;;2.70;2.50;;;;;;;;;;5055444;28;20448;-81
2023/08/14 05:30:34;;;;;;;3.03;1.93;;;;;;;;;;5055912;28;20449;-81
2023/08/14 05:33:01;;;;;;;1.90;1.70;;;;;;;;;;5055053;28;20999;-81
2023/08/14 05:35:30;;;;;;;2.20;1.70;;;;;;;;;;5055577;28;20461;-81
2023/08/14 05:37:57;;;;;;;2.30;1.90;;;;;;;;;;5056165;28;20579;-81
2023/08/14 05:40:25;;;;;;;3.20;1.87;;;;;;;;;;5057196;28;20503;-80
2023/08/14 05:43:03;;;;;;;2.37;1.90;;;;;;;;;;5055611;28;20460;-80
2023/08/14 05:45:32;;;;;;;1.63;1.53;;;;;;;;;;5056663;28;20475;-81
2023/08/14 05:47:59;;;;;;;2.17;1.97;;;;;;;;;;5056067;28;20459;-80
2023/08/14 05:50:27;;;;;;;2.47;2.10;;;;;;;;;;5056202;28;20448;-80
2023/08/14 05:52:55;;;;;;;2.50;1.93;;;;;;;;;;5055485;28;20985;-81
2023/08/14 05:55:23;;;;;;;1.97;1.77;;;;;;;;;;5056023;28;20522;-80
2023/08/14 05:57:50;;;;;;;3.00;1.97;;;;;;;;;;5056223;28;20448;-80
2023/08/14 06:00:17;;;;;;;2.90;1.93;;;;;;;;;;5055780;28;20463;-80
2023/08/14 06:02:46;;;;;;;2.40;2.20;;;;;;;;;;5055462;28;20470;-80
2023/08/14 06:05:13;;;;;;;2.13;1.93;;;;;;;;;;5055049;28;20443;-81
2023/08/14 06:07:40;;;;;;;8.33;1.97;;;;;;;;;;5054986;28;20466;-80
2023/08/14 06:10:08;;;;;;;2.93;2.03;;;;;;;;;;5055926;28;20477;-80
2023/08/14 06:12:35;;;;;;;3.33;1.90;;;;;;;;;;5055830;28;20475;-80
2023/08/14 06:15:02;;;;;;;3.00;1.80;;;;;;;;;;5054797;28;20495;-80
2023/08/14 06:17:32;;;;;;;5.33;2.20;;;;;;;;;;5056193;28;20454;-80
2023/08/14 06:20:00;;;;;;;3.60;2.00;;;;;;;;;;5056508;28;20581;-80
2023/08/14 06:22:28;;;;;;;2.47;2.00;;;;;;;;;;5055581;28;20689;-80
2023/08/14 06:24:55;;;;;;;2.83;2.10;;;;;;;;;;5055430;28;20210;-80
2023/08/14 06:27:22;;;;;;;2.40;2.03;;;;;;;;;;5055221;28;20641;-80
2023/08/14 06:29:49;;;;;;;2.13;2.00;;;;;;;;;;5055424;28;20691;-80
2023/08/14 06:32:16;;;;;;;2.70;2.23;;;;;;;;;;5055757;28;20251;-80
2023/08/14 06:34:43;;;;;;;3.67;2.13;;;;;;;;;;5056091;28;20226;-80
2023/08/14 06:37:12;;;;;;;3.20;2.10;;;;;;;;;;5055399;28;20209;-80
2023/08/14 06:39:39;;;;;;;3.43;2.00;;;;;;;;;;5055808;28;20630;-80
2023/08/14 06:42:06;;;;;;;2.37;2.17;;;;;;;;;;5054868;28;20226;-80
2023/08/14 06:44:33;;;;;;;3.17;2.00;;;;;;;;;;5055223;28;20786;-80
2023/08/14 06:47:01;;;;;;;4.03;2.00;;;;;;;;;;5055313;28;20460;-79
2023/08/14 06:49:28;;;;;;;2.67;1.80;;;;;;;;;;5055302;28;20209;-80
2023/08/14 06:51:55;;;;;;;3.75;1.90;;;;;;;;;;5055902;28;20235;-79
2023/08/14 06:54:23;;;;;;;2.13;1.80;;;;;;;;;;5054381;28;20230;-81
2023/08/14 06:56:51;;;;;;;4.07;1.92;;;;;;;;;;5055560;28;20209;-81
2023/08/14 06:59:18;;;;;;;2.38;1.67;;;;;;;;;;5055441;28;20220;-81
2023/08/14 07:01:45;;;;;;;2.00;1.80;;;;;;;;;;5055213;28;20233;-81
2023/08/14 07:04:12;;;;;;;2.13;1.88;;;;;;;;;;5054870;28;20209;-80
2023/08/14 07:06:39;;;;;;;3.90;1.98;;;;;;;;;;5055699;28;20213;-81
2023/08/14 07:09:06;;;;;;;3.10;1.80;;;;;;;;;;5055813;28;20198;-81
2023/08/14 07:11:38;;;;;;;5.28;3.28;;;;;;;;;;5054880;28;20588;-81
2023/08/14 07:14:06;;;;;;;3.00;1.60;;;;;;;;;;5055749;28;20626;-81
2023/08/14 07:16:33;;;;;;;4.30;2.00;;;;;;;;;;5055195;28;20216;-80
2023/08/14 07:19:00;;;;;;;3.25;2.42;;;;;;;;;;5057731;28;20211;-78
2023/08/14 07:21:27;;;;;;;3.00;2.15;;;;;;;;;;5058870;28;20336;-82
2023/08/14 07:23:54;;;;;;;2.80;2.22;;;;;;;;;;5058407;28;20213;-80
2023/08/14 07:26:22;;;;;;;4.43;2.47;;;;;;;;;;5058688;28;20575;-79
2023/08/14 07:28:50;;;;;;;2.80;2.47;;;;;;;;;;5059166;28;20224;-80
2023/08/14 07:31:18;;;;;;;2.72;2.20;;;;;;;;;;5059055;28;20205;-80
2023/08/14 07:33:45;;;;;;;2.90;2.60;;;;;;;;;;5058612;28;20231;-79
2023/08/14 07:36:12;;;;;;;3.00;2.70;;;;;;;;;;5057618;28;20576;-78
2023/08/14 07:38:39;;;;;;;9.15;2.58;;;;;;;;;;5058680;28;20202;-79
2023/08/14 07:41:06;;;;;;;3.60;3.20;;;;;;;;;;5058631;28;20699;-80
2023/08/14 07:43:33;;;;;;;4.40;2.78;;;;;;;;;;5058687;28;20206;-80
2023/08/14 07:46:02;;;;;;;3.65;2.88;;;;;;;;;;5058715;28;20256;-79
2023/08/14 07:48:29;;;;;;;3.40;2.40;;;;;;;;;;5059641;28;20622;-80
2023/08/14 07:50:56;;;;;;;3.10;2.78;;;;;;;;;;5058498;28;20209;-78
2023/08/14 07:53:23;;;;;;;5.07;2.30;;;;;;;;;;5058988;28;20248;-80
2023/08/14 07:55:50;;;;;;;5.30;2.58;;;;;;;;;;5059247;28;20233;-78
2023/08/14 07:58:18;;;;;;;2.70;2.50;;;;;;;;;;5058291;28;20213;-80
2023/08/14 08:00:45;;;;;;;4.90;2.80;;;;;;;;;;5058317;28;20300;-80
2023/08/14 08:03:13;;;;;;;3.70;2.20;;;;;;;;;;5058234;28;20280;-79
2023/08/14 08:05:41;;;;;;;4.80;2.47;;;;;;;;;;5057887;28;20901;-80
2023/08/14 08:08:08;;;;;;;3.10;2.47;;;;;;;;;;5058627;28;20452;-80
2023/08/14 08:10:35;;;;;;;4.50;2.20;;;;;;;;;;5057648;28;20619;-80
2023/08/14 08:13:02;;;;;;;2.53;2.23;;;;;;;;;;5057572;28;20464;-80
2023/08/14 08:15:30;;;;;;;2.60;2.10;;;;;;;;;;5057823;28;21072;-78
2023/08/14 08:17:57;;;;;;;3.73;2.77;;;;;;;;;;5057288;28;20884;-79
2023/08/14 08:20:26;;;;;;;4.70;2.33;;;;;;;;;;5056829;28;20565;-78
2023/08/14 08:22:53;;;;;;;2.50;2.30;;;;;;;;;;5056680;28;20496;-78
2023/08/14 08:25:20;;;;;;;3.07;2.00;;;;;;;;;;5057122;28;20876;-80
2023/08/14 08:27:48;;;;;;;5.60;2.20;;;;;;;;;;5058068;28;20467;-79
2023/08/14 08:30:15;;;;;;;4.40;2.40;;;;;;;;;;5058972;28;20933;-80
2023/08/14 08:32:43;;;;;;;5.40;2.57;;;;;;;;;;5060802;28;20555;-79
2023/08/14 08:35:10;;;;;;;2.43;2.23;;;;;;;;;;5060659;28;20484;-79
2023/08/14 08:37:38;;;;;;;2.80;2.43;;;;;;;;;;5060118;28;20466;-80
2023/08/14 08:40:06;;;;;;;3.43;2.87;;;;;;;;;;5058579;28;20448;-80
2023/08/14 08:42:34;;;;;;;3.10;2.27;;;;;;;;;;5057612;28;20465;-80
2023/08/14 08:45:03;;;;;;;2.63;2.43;;;;;;;;;;5058036;28;20552;-80
2023/08/14 08:47:31;;;;;;;4.33;2.30;;;;;;;;;;5057995;28;20871;-80
2023/08/14 08:49:58;;;;;;;2.60;2.40;;;;;;;;;;5058620;28;20444;-80
2023/08/14 08:52:26;;;;;;;5.33;2.40;;;;;;;;;;5057706;28;20473;-80
2023/08/14 08:54:54;;;;;;;2.80;2.27;;;;;;;;;;5057550;28;21018;-80
2023/08/14 08:57:22;;;;;;;3.27;2.77;;;;;;;;;;5056479;28;20441;-80
2023/08/14 08:59:49;;;;;;;3.63;3.07;;;;;;;;;;5057227;28;20467;-81
2023/08/14 09:02:16;;;;;;;3.90;2.27;;;;;;;;;;5057967;28;20469;-81
2023/08/14 09:04:44;;;;;;;2.10;1.90;;;;;;;;;;5057297;28;21024;-80
2023/08/14 09:07:11;;;;;;;3.53;3.13;;;;;;;;;;5057117;28;20494;-80
2023/08/14 09:09:38;;;;;;;5.00;3.07;;;;;;;;;;5057837;28;20443;-81
2023/08/14 09:12:07;;;;;;;3.60;2.60;;;;;;;;;;5057769;28;20476;-81
2023/08/14 09:14:34;;;;;;;6.23;3.10;;;;;;;;;;5056906;28;21043;-80
2023/08/14 09:17:02;;;;;;;3.53;2.90;;;;;;;;;;5056409;28;20459;-80
2023/08/14 09:19:30;;;;;;;2.53;2.20;;;;;;;;;;5056573;28;20467;-81
2023/08/14 09:21:57;;;;;;;3.13;2.93;;;;;;;;;;5056969;28;20472;-80
2023/08/14 09:24:24;;;;;;;3.10;2.43;;;;;;;;;;5057076;28;20466;-80
2023/08/14 09:26:51;;;;;;;4.77;3.07;;;;;;;;;;5057045;28;20586;-80
2023/08/14 09:29:20;;;;;;;3.17;2.87;;;;;;;;;;5056902;28;20949;-81
2023/08/14 09:31:48;;;;;;;4.40;2.80;;;;;;;;;;5057011;28;21037;-80
2023/08/14 09:34:18;;;;;;;3.13;2.50;;;;;;;;;;5056986;28;20460;-80
2023/08/14 09:36:45;;;;;;;3.20;2.90;;;;;;;;;;5057323;28;20453;-83
2023/08/14 09:39:12;;;;;;;5.03;3.37;;;;;;;;;;5057169;28;20456;-80
2023/08/14 09:41:40;;;;;;;4.90;2.67;;;;;;;;;;5055805;28;20483;-81
2023/08/14 09:44:07;;;;;;;12.67;3.00;;;;;;;;;;5056773;28;20449;-81
2023/08/14 09:46:35;;;;;;;5.80;2.83;;;;;;;;;;5057172;28;20532;-80
2023/08/14 09:49:03;;;;;;;5.67;3.90;;;;;;;;;;5056776;28;20471;-80
2023/08/14 09:51:30;;;;;;;3.80;3.50;;;;;;;;;;5056372;28;20473;-81
2023/08/14 09:53:58;;;;;;;5.23;3.17;;;;;;;;;;5057084;28;20467;-80
2023/08/14 09:56:25;;;;;;;5.03;4.60;;;;;;;;;;5057093;28;20495;-81
2023/08/14 09:58:54;;;;;;;6.90;3.40;;;;;;;;;;5056743;28;20444;-81
2023/08/14 10:01:21;;;;;;;3.10;2.63;;;;;;;;;;5063150;22;20873;-81
2023/08/14 10:03:51;;;;;;;3.50;3.20;;;;;;;;;;5056838;28;20838;-82
2023/08/14 10:06:19;;;;;;;4.17;2.90;;;;;;;;;;5056720;28;20434;-82
2023/08/14 10:08:47;;;;;;;4.27;3.87;;;;;;;;;;5056136;28;20433;-82
2023/08/14 10:11:15;;;;;;;5.53;3.50;;;;;;;;;;5056330;28;20460;-82
2023/08/14 10:13:44;;;;;;;5.60;3.40;;;;;;;;;;5056365;28;20876;-83
2023/08/14 10:16:14;;;;;;;3.83;3.47;;;;;;;;;;5056628;28;21059;-82
2023/08/14 10:18:42;;;;;;;5.00;3.00;;;;;;;;;;5057236;28;20487;-83
2023/08/14 10:21:12;;;;;;;3.43;2.87;;;;;;;;;;5056591;28;20813;-83
2023/08/14 10:23:41;;;;;;;5.93;3.40;;;;;;;;;;5055988;28;20535;-83
2023/08/14 10:26:08;;;;;;;3.37;3.07;;;;;;;;;;5055635;28;20823;-83
2023/08/14 10:28:35;;;;;;;3.97;3.30;;;;;;;;;;5055848;28;20503;-83
2023/08/14 10:31:03;;;;;;;3.73;3.43;;;;;;;;;;5056231;28;20436;-83
2023/08/14 10:33:31;;;;;;;4.03;3.03;;;;;;;;;;5056618;28;20471;-83
2023/08/14 10:35:58;;;;;;;7.30;4.30;;;;;;;;;;5055538;28;20492;-82
2023/08/14 10:38:40;;;;;;;4.20;3.50;;;;;;;;;;5054614;28;20452;-82
2023/08/14 10:41:08;;;;;;;4.37;3.20;;;;;;;;;;5055080;28;20425;-83
2023/08/14 10:43:35;;;;;;;4.07;2.83;;;;;;;;;;5056504;28;20524;-83
2023/08/14 10:46:08;;;;;;;5.10;3.30;;;;;;;;;;5055024;28;20836;-83
2023/08/14 10:48:37;;;;;;;3.20;2.90;;;;;;;;;;5055920;28;20433;-82
2023/08/14 10:51:04;;;;;;;6.23;3.43;;;;;;;;;;5055904;28;20452;-82
2023/08/14 10:53:32;;;;;;;3.33;2.97;;;;;;;;;;5059413;28;20460;-82
2023/08/14 10:56:00;;;;;;;3.47;2.87;;;;;;;;;;5060507;28;20488;-82
2023/08/14 10:58:38;;;;;;;3.37;3.07;;;;;;;;;;5060708;28;20457;-82
2023/08/14 11:01:06;;;;;;;4.47;2.90;;;;;;;;;;5060285;28;20511;-83
2023/08/14 11:03:34;;;;;;;4.60;3.40;;;;;;;;;;5061279;28;20510;-84
2023/08/14 11:06:01;;;;;;;4.60;3.20;;;;;;;;;;5060818;28;20543;-83
2023/08/14 11:08:30;;;;;;;3.10;2.80;;;;;;;;;;5061632;28;20443;-83
2023/08/14 11:10:59;;;;;;;3.50;3.20;;;;;;;;;;5061967;28;20449;-84
2023/08/14 11:13:29;;;;;;;3.63;3.00;;;;;;;;;;5062581;28;20484;-83
2023/08/14 11:15:56;;;;;;;3.53;3.23;;;;;;;;;;5062533;28;20471;-81
2023/08/14 11:18:23;;;;;;;3.60;3.20;;;;;;;;;;5064254;28;20459;-83
2023/08/14 11:20:51;;;;;;;3.67;3.37;;;;;;;;;;5064348;28;20452;-83
2023/08/14 11:23:18;;;;;;;4.30;3.70;;;;;;;;;;5065349;28;20456;-83
2023/08/14 11:25:45;;;;;;;3.70;2.67;;;;;;;;;;5065461;28;20952;-83
2023/08/14 11:28:14;;;;;;;4.00;2.93;;;;;;;;;;5064907;28;20421;-82
2023/08/14 11:30:41;;;;;;;3.73;3.43;;;;;;;;;;5063789;28;20480;-83
2023/08/14 11:33:09;;;;;;;3.63;3.33;;;;;;;;;;5063110;28;20476;-83
2023/08/14 11:35:36;;;;;;;3.87;3.10;;;;;;;;;;5064930;28;20518;-83
2023/08/14 11:38:03;;;;;;;5.40;2.87;;;;;;;;;;5064356;28;20463;-83
2023/08/14 11:40:30;;;;;;;4.77;2.90;;;;;;;;;;5066794;28;20463;-84
2023/08/14 11:42:57;;;;;;;6.90;2.90;;;;;;;;;;5065488;28;20458;-84
2023/08/14 11:45:27;;;;;;;4.20;3.50;;;;;;;;;;5063010;28;20457;-83
2023/08/14 11:47:54;;;;;;;3.30;3.00;;;;;;;;;;5065221;28;20457;-83
2023/08/14 11:50:21;;;;;;;4.43;2.83;;;;;;;;;;5065872;28;20449;-84
2023/08/14 11:52:50;;;;;;;3.83;3.53;;;;;;;;;;5065462;28;20468;-82
2023/08/14 11:55:17;;;;;;;2.90;2.70;;;;;;;;;;5065263;28;20464;-84
2023/08/14 11:57:44;;;;;;;3.20;3.00;;;;;;;;;;5065826;28;20460;-83
2023/08/14 12:00:13;;;;;;;3.80;3.50;;;;;;;;;;5065964;28;20524;-83
2023/08/14 12:02:42;;;;;;;3.50;3.20;;;;;;;;;;5065850;28;20482;-84
2023/08/14 12:05:10;;;;;;;5.30;3.27;;;;;;;;;;5063913;28;20437;-83
2023/08/14 12:07:37;;;;;;;3.13;2.83;;;;;;;;;;5065230;28;20451;-83
2023/08/14 12:10:07;;;;;;;4.70;4.20;;;;;;;;;;5064710;28;20459;-83
2023/08/14 12:12:34;;;;;;;3.43;3.20;;;;;;;;;;5064418;28;20457;-82
2023/08/14 12:15:02;;;;;;;3.70;3.20;;;;;;;;;;5064008;28;20588;-83
2023/08/14 12:17:30;;;;;;;3.67;3.23;;;;;;;;;;5063604;28;20503;-83
2023/08/14 12:19:59;;;;;;;4.10;3.67;;;;;;;;;;5063703;28;20496;-82
2023/08/14 12:22:27;;;;;;;5.27;3.37;;;;;;;;;;5063997;28;20476;-83
2023/08/14 12:24:55;;;;;;;4.97;3.27;;;;;;;;;;5064081;28;20453;-82
2023/08/14 12:27:22;;;;;;;3.53;3.03;;;;;;;;;;5063047;28;20462;-83
2023/08/14 12:29:50;;;;;;;4.23;3.77;;;;;;;;;;5064515;28;20545;-83
2023/08/14 12:32:17;;;;;;;3.73;2.70;;;;;;;;;;5063417;28;20505;-81
2023/08/14 12:34:44;;;;;;;4.00;3.70;;;;;;;;;;5064257;28;20574;-82
2023/08/14 12:37:14;;;;;;;8.73;3.70;;;;;;;;;;5065162;28;20534;-81
2023/08/14 12:39:42;;;;;;;4.33;3.10;;;;;;;;;;5064987;28;20445;-82
2023/08/14 12:42:10;;;;;;;5.40;3.17;;;;;;;;;;5066159;28;20599;-81
2023/08/14 12:44:37;;;;;;;7.70;3.50;;;;;;;;;;5065028;28;20467;-81
2023/08/14 12:47:04;;;;;;;7.60;3.27;;;;;;;;;;5064754;28;20452;-81
2023/08/14 12:49:31;;;;;;;7.40;3.93;;;;;;;;;;5063033;28;20532;-81
2023/08/14 12:51:59;;;;;;;4.63;3.60;;;;;;;;;;5062323;28;20976;-81
2023/08/14 12:54:28;;;;;;;8.67;3.60;;;;;;;;;;5062520;28;20445;-81
2023/08/14 12:56:55;;;;;;;4.50;3.43;;;;;;;;;;5060794;28;20652;-83
2023/08/14 12:59:23;;;;;;;4.03;3.60;;;;;;;;;;5061211;28;20441;-81
2023/08/14 13:01:50;;;;;;;7.90;4.33;;;;;;;;;;5061607;28;20508;-81
2023/08/14 13:04:17;;;;;;;4.53;3.73;;;;;;;;;;5060947;28;20592;-82
2023/08/14 13:06:44;;;;;;;4.50;3.03;;;;;;;;;;5060518;28;20449;-81
2023/08/14 13:09:12;;;;;;;3.40;3.10;;;;;;;;;;5060935;28;20498;-81
2023/08/14 13:11:41;;;;;;;3.90;3.60;;;;;;;;;;5061846;28;20980;-81
2023/08/14 13:14:08;;;;;;;3.90;3.30;;;;;;;;;;5064294;28;20846;-82
2023/08/14 13:16:35;;;;;;;4.70;3.30;;;;;;;;;;5062392;28;20575;-82
2023/08/14 13:19:02;;;;;;;5.90;4.30;;;;;;;;;;5063279;28;20465;-81
2023/08/14 13:21:29;;;;;;;4.20;3.80;;;;;;;;;;5062455;28;20476;-82
2023/08/14 13:23:57;;;;;;;8.37;4.13;;;;;;;;;;5060887;28;20471;-81
2023/08/14 13:26:24;;;;;;;4.27;3.87;;;;;;;;;;5060392;28;20460;-81
2023/08/14 13:28:52;;;;;;;4.93;4.53;;;;;;;;;;5059630;28;20547;-82
2023/08/14 13:31:19;;;;;;;4.57;4.17;;;;;;;;;;5059575;28;20997;-81
2023/08/14 13:33:47;;;;;;;4.43;4.03;;;;;;;;;;5061223;28;20455;-81
2023/08/14 13:36:14;;;;;;;6.17;4.90;;;;;;;;;;5060467;28;20620;-81
2023/08/14 13:38:41;;;;;;;6.23;4.13;;;;;;;;;;5060838;28;20465;-82
2023/08/14 13:41:10;;;;;;;4.47;4.17;;;;;;;;;;5059849;28;20456;-81
2023/08/14 13:43:37;;;;;;;5.20;4.27;;;;;;;;;;5059814;28;20464;-81
2023/08/14 13:46:05;;;;;;;3.73;3.43;;;;;;;;;;5060023;28;20457;-81
2023/08/14 13:48:32;;;;;;;8.83;4.53;;;;;;;;;;5063007;28;20552;-82
2023/08/14 13:51:00;;;;;;;5.03;4.53;;;;;;;;;;5064625;28;20953;-81
2023/08/14 13:53:27;;;;;;;7.30;4.67;;;;;;;;;;5062915;28;20923;-81
2023/08/14 13:55:54;;;;;;;5.87;4.70;;;;;;;;;;5062520;28;20820;-81
2023/08/14 13:58:21;;;;;;;5.63;4.90;;;;;;;;;;5062157;28;20925;-81
2023/08/14 14:00:48;;;;;;;5.43;4.93;;;;;;;;;;5060731;28;20461;-81
2023/08/14 14:03:17;;;;;;;6.17;4.53;;;;;;;;;;5060710;28;20491;-81
2023/08/14 14:05:44;;;;;;;4.90;4.37;;;;;;;;;;5059449;28;20483;-81
2023/08/14 14:08:11;;;;;;;6.23;4.70;;;;;;;;;;5059018;28;20459;-81
2023/08/14 14:10:38;;;;;;;5.70;4.53;;;;;;;;;;5059743;28;20440;-81
2023/08/14 14:13:05;;;;;;;5.07;4.23;;;;;;;;;;5058657;28;20485;-82
2023/08/14 14:15:33;;;;;;;5.57;5.10;;;;;;;;;;5058183;28;20527;-81
2023/08/14 14:18:00;;;;;;;5.43;4.83;;;;;;;;;;5058192;28;20502;-81
2023/08/14 14:20:29;;;;;;;4.90;4.50;;;;;;;;;;5059283;28;20838;-81
2023/08/14 14:22:56;;;;;;;4.90;4.50;;;;;;;;;;5059560;28;20489;-82
2023/08/14 14:25:23;;;;;;;5.17;4.67;;;;;;;;;;5058719;28;20457;-81
2023/08/14 14:27:50;;;;;;;5.30;4.80;;;;;;;;;;5061844;28;20544;-82
2023/08/14 14:30:17;;;;;;;5.10;4.60;;;;;;;;;;5062438;28;20524;-82
2023/08/14 14:32:44;;;;;;;7.23;4.80;;;;;;;;;;5070151;22;20534;-81
2023/08/14 14:35:13;;;;;;;5.20;4.60;;;;;;;;;;5062199;28;20936;-81
2023/08/14 14:37:42;;;;;;;5.17;4.43;;;;;;;;;;5060300;28;20542;-81
2023/08/14 14:40:10;;;;;;;6.73;5.20;;;;;;;;;;5067189;28;20452;-83
2023/08/14 14:42:37;;;;;;;7.60;5.47;;;;;;;;;;5068267;28;20491;-81
2023/08/14 14:45:05;;;;;;;7.20;5.03;;;;;;;;;;5066982;28;20461;-82